Time;durP1;ratioP1;P1;durP2;ratioP2;P2;SDS_P1;SDS_P2;PMS_P1;PMS_P2;Temp;Humidity;BMP_temperature;BMP_pressure;BME280_temperature;BME280_humidity;BME280_pressure;Samples;Min_cycle;Max_cycle;Signal;HPM_P1;HPM_P2
2022/05/05 00:02:15;;;;;;;33.75;26.92;;;13.80;76.20;;;;;;5022281;28;20201;-84
2022/05/05 00:04:41;;;;;;;35.00;28.48;;;13.80;76.10;;;;;;5023225;28;20768;-85
2022/05/05 00:07:07;;;;;;;34.20;27.45;;;13.70;76.10;;;;;;5025377;28;20581;-87
2022/05/05 00:09:32;;;;;;;34.60;27.73;;;13.70;76.30;;;;;;5043662;28;20030;-87
2022/05/05 00:14:42;;;;;;;36.42;27.42;;;13.70;76.30;;;;;;5025709;28;20064;-85
2022/05/05 00:17:09;;;;;;;33.80;28.55;;;13.70;76.10;;;;;;5027349;28;20041;-86
2022/05/05 00:19:41;;;;;;;34.90;26.02;;;13.60;76.20;;;;;;5016442;28;20406;-84
2022/05/05 00:22:07;;;;;;;37.83;27.60;;;13.60;75.90;;;;;;5016038;28;20041;-86
2022/05/05 00:24:33;;;;;;;34.10;25.40;;;13.60;75.90;;;;;;5027818;28;20076;-86
2022/05/05 00:27:00;;;;;;;34.88;25.83;;;13.60;75.90;;;;;;5026400;28;20067;-85
2022/05/05 00:29:25;;;;;;;33.53;25.63;;;13.50;76.00;;;;;;5033559;28;20057;-84
2022/05/05 00:31:51;;;;;;;30.92;23.90;;;13.50;76.20;;;;;;5030263;28;20168;-85
2022/05/05 00:34:18;;;;;;;32.88;25.98;;;13.50;76.30;;;;;;5028968;28;20855;-85
2022/05/05 00:36:44;;;;;;;33.78;25.60;;;13.40;76.40;;;;;;5023652;28;20029;-86
2022/05/05 00:39:13;;;;;;;33.25;25.85;;;13.40;76.60;;;;;;5023517;28;20053;-85
2022/05/05 00:41:42;;;;;;;31.83;25.83;;;13.40;76.80;;;;;;5026335;28;20033;-85
2022/05/05 00:44:08;;;;;;;33.25;25.23;;;13.40;76.40;;;;;;5021403;28;20057;-86
2022/05/05 00:46:34;;;;;;;33.72;25.60;;;13.20;76.60;;;;;;5027274;28;20052;-85
2022/05/05 00:49:00;;;;;;;32.28;24.45;;;13.20;76.80;;;;;;5015826;28;20041;-85
2022/05/05 00:51:27;;;;;;;34.28;25.48;;;13.20;76.90;;;;;;5021486;28;20057;-84
2022/05/05 00:53:54;;;;;;;31.83;25.15;;;13.20;76.80;;;;;;5025669;28;20033;-87
2022/05/05 00:56:21;;;;;;;34.72;25.75;;;13.10;77.00;;;;;;5028397;28;20836;-83
2022/05/05 00:58:48;;;;;;;35.35;24.77;;;13.10;77.00;;;;;;5026685;28;20088;-86
2022/05/05 01:01:21;;;;;;;34.65;25.33;;;13.20;77.00;;;;;;5027350;28;20074;-83
2022/05/05 01:03:48;;;;;;;36.95;25.80;;;13.10;77.20;;;;;;5028437;28;20056;-84
2022/05/05 01:06:15;;;;;;;33.83;24.67;;;13.20;77.50;;;;;;5027824;28;20182;-84
2022/05/05 01:08:41;;;;;;;35.70;26.27;;;13.10;77.90;;;;;;5029122;28;20034;-84
2022/05/05 01:11:07;;;;;;;32.17;23.90;;;13.20;78.10;;;;;;5037750;28;20067;-83
2022/05/05 01:13:37;;;;;;;35.75;26.55;;;13.20;78.20;;;;;;5016974;28;20042;-83
2022/05/05 01:16:05;;;;;;;33.00;26.42;;;13.20;78.20;;;;;;5024684;28;20625;-84
2022/05/05 01:18:30;;;;;;;35.88;25.02;;;13.20;78.30;;;;;;5020652;28;20087;-84
2022/05/05 01:20:56;;;;;;;37.25;27.38;;;13.20;78.40;;;;;;5026482;28;20893;-84
2022/05/05 01:23:22;;;;;;;37.03;27.38;;;13.10;78.50;;;;;;5030092;28;20144;-85
2022/05/05 01:28:33;;;;;;;;;;;13.10;78.80;;;;;;5028913;28;20176;-85
2022/05/05 01:31:00;;;;;;;36.08;26.17;;;13.10;79.10;;;;;;5026251;28;20006;-87
2022/05/05 01:33:27;;;;;;;36.80;26.83;;;13.10;79.20;;;;;;5042672;28;20038;-88
2022/05/05 01:35:55;;;;;;;35.90;26.63;;;13.10;79.50;;;;;;5028178;28;20088;-84
2022/05/05 01:38:23;;;;;;;38.38;28.50;;;13.10;79.60;;;;;;5023722;28;20037;-84
2022/05/05 01:40:49;;;;;;;38.58;26.90;;;13.10;79.60;;;;;;5021072;28;20348;-85
2022/05/05 01:43:17;;;;;;;38.30;29.83;;;13.10;80.00;;;;;;5023972;28;20060;-84
2022/05/05 01:45:43;;;;;;;43.55;29.65;;;13.10;81.70;;;;;;5022875;28;20485;-84
2022/05/05 01:48:09;;;;;;;42.03;32.28;;;13.00;82.10;;;;;;5026670;28;20417;-84
2022/05/05 01:50:35;;;;;;;43.40;31.05;;;13.00;81.90;;;;;;5025611;28;20123;-85
2022/05/05 01:53:02;;;;;;;39.67;30.38;;;12.90;82.00;;;;;;5030750;28;20037;-84
2022/05/05 01:55:30;;;;;;;44.55;32.00;;;13.00;82.40;;;;;;5022456;28;20041;-85
2022/05/05 01:57:56;;;;;;;40.20;29.67;;;13.00;82.60;;;;;;5022270;28;20042;-83
2022/05/05 02:00:22;;;;;;;39.47;29.40;;;12.90;83.10;;;;;;5027427;28;20040;-83
2022/05/05 02:02:48;;;;;;;43.58;30.90;;;13.00;83.30;;;;;;5025362;28;20141;-84
2022/05/05 02:05:14;;;;;;;45.13;32.05;;;13.00;83.70;;;;;;5020926;28;20473;-84
2022/05/05 02:07:41;;;;;;;45.72;33.28;;;12.90;83.70;;;;;;5024546;28;20672;-85
2022/05/05 02:10:08;;;;;;;45.17;31.85;;;12.90;83.70;;;;;;5022905;28;20488;-85
2022/05/05 02:12:36;;;;;;;40.95;30.90;;;12.80;83.90;;;;;;5020744;28;20052;-84
2022/05/05 02:15:08;;;;;;;45.35;32.28;;;12.90;83.90;;;;;;5024738;28;20578;-83
2022/05/05 02:17:42;;;;;;;45.88;33.65;;;12.70;83.60;;;;;;5023670;28;20059;-85
2022/05/05 02:20:11;;;;;;;47.92;33.65;;;12.80;84.10;;;;;;5020329;28;20038;-84
2022/05/05 02:22:38;;;;;;;45.97;33.20;;;12.80;84.30;;;;;;5019413;28;20033;-84
2022/05/05 02:25:04;;;;;;;41.67;32.20;;;12.70;84.10;;;;;;5024878;28;20033;-85
2022/05/05 02:27:30;;;;;;;46.63;32.90;;;12.70;84.00;;;;;;5021560;28;20944;-84
2022/05/05 02:29:55;;;;;;;46.67;34.25;;;12.70;84.00;;;;;;5026070;28;20038;-84
2022/05/05 02:32:21;;;;;;;51.92;35.67;;;12.70;84.00;;;;;;5018200;28;20064;-86
2022/05/05 02:34:47;;;;;;;46.70;32.25;;;12.60;84.10;;;;;;5019766;28;20045;-86
2022/05/05 02:39:59;;;;;;;45.72;33.25;;;12.60;84.20;;;;;;5023295;28;20053;-84
2022/05/05 02:42:24;;;;;;;47.53;34.05;;;12.60;84.20;;;;;;5016395;28;20108;-85
2022/05/05 02:44:50;;;;;;;48.42;35.47;;;12.60;84.20;;;;;;5021916;28;20387;-85
2022/05/05 02:47:16;;;;;;;46.75;34.55;;;12.70;84.60;;;;;;5020196;28;20044;-85
2022/05/05 02:49:41;;;;;;;46.42;34.97;;;12.70;84.70;;;;;;5025829;28;20034;-87
2022/05/05 02:52:08;;;;;;;49.25;36.33;;;12.70;84.70;;;;;;5023711;28;20124;-84
2022/05/05 02:54:47;;;;;;;50.20;35.03;;;12.70;84.80;;;;;;5025501;28;20037;-85
2022/05/05 02:57:13;;;;;;;46.03;34.83;;;12.70;84.80;;;;;;5033832;28;20048;-87
2022/05/05 02:59:39;;;;;;;50.83;36.53;;;12.70;84.90;;;;;;5038635;28;20035;-86
2022/05/05 03:02:05;;;;;;;54.13;39.35;;;12.60;84.80;;;;;;5023146;28;20030;-86
2022/05/05 03:04:31;;;;;;;50.58;37.65;;;12.60;84.70;;;;;;5019665;28;20045;-87
2022/05/05 03:06:56;;;;;;;52.70;39.80;;;12.60;84.70;;;;;;5018162;28;20402;-84
2022/05/05 03:09:22;;;;;;;58.65;40.92;;;12.60;84.60;;;;;;5025171;28;20041;-86
2022/05/05 03:11:47;;;;;;;52.28;37.42;;;12.60;84.70;;;;;;5026295;28;20090;-86
2022/05/05 03:14:13;;;;;;;52.15;36.97;;;12.60;84.80;;;;;;5013628;28;20059;-86
2022/05/05 03:16:39;;;;;;;52.25;37.45;;;12.60;84.80;;;;;;5024886;28;20056;-86
2022/05/05 03:19:05;;;;;;;53.63;38.95;;;12.60;85.00;;;;;;5025021;28;20099;-87
2022/05/05 03:21:31;;;;;;;54.30;37.50;;;12.60;84.80;;;;;;5022113;28;20037;-87
2022/05/05 03:23:56;;;;;;;53.15;38.10;;;12.60;84.90;;;;;;5018823;28;20451;-86
2022/05/05 03:26:22;;;;;;;55.53;38.88;;;12.60;84.80;;;;;;5037633;28;20075;-86
2022/05/05 03:28:47;;;;;;;58.10;40.13;;;12.50;84.80;;;;;;5016371;28;20042;-84
2022/05/05 03:31:13;;;;;;;52.20;37.63;;;12.50;84.80;;;;;;5017851;28;20042;-85
2022/05/05 03:33:39;;;;;;;48.85;35.70;;;12.50;84.90;;;;;;5023426;28;20044;-86
2022/05/05 03:36:05;;;;;;;53.70;37.22;;;12.50;85.00;;;;;;5028395;28;20210;-85
2022/05/05 03:38:30;;;;;;;57.08;39.35;;;12.50;85.00;;;;;;5026641;28;20033;-88
2022/05/05 03:40:56;;;;;;;52.00;37.75;;;12.60;85.10;;;;;;5028515;28;20071;-85
2022/05/05 03:43:22;;;;;;;52.03;37.53;;;12.50;85.10;;;;;;5023266;28;20049;-87
2022/05/05 03:45:47;;;;;;;52.05;37.95;;;12.60;85.10;;;;;;5029143;28;20052;-89
2022/05/05 03:48:13;;;;;;;49.17;37.60;;;12.50;85.00;;;;;;5030120;28;20506;-87
2022/05/05 03:50:39;;;;;;;52.05;37.25;;;12.50;85.00;;;;;;5033460;28;20037;-87
2022/05/05 03:53:05;;;;;;;56.97;39.05;;;12.50;85.00;;;;;;5023323;28;20045;-85
2022/05/05 03:55:32;;;;;;;52.58;37.95;;;12.50;85.10;;;;;;5026275;28;20594;-85
2022/05/05 03:57:57;;;;;;;50.72;36.13;;;12.40;85.20;;;;;;5021399;28;20033;-86
2022/05/05 04:00:23;;;;;;;53.10;36.33;;;12.50;85.30;;;;;;5030093;28;20042;-83
2022/05/05 04:05:34;;;;;;;49.42;35.78;;;12.40;85.40;;;;;;5022676;28;20087;-84
2022/05/05 04:08:04;;;;;;;53.33;36.92;;;12.40;85.40;;;;;;5022252;28;20464;-88
2022/05/05 04:10:31;;;;;;;52.30;37.42;;;12.30;85.40;;;;;;5021260;28;20461;-87
2022/05/05 04:12:57;;;;;;;55.15;36.85;;;12.30;85.50;;;;;;5028262;28;20183;-87
2022/05/05 04:15:23;;;;;;;54.05;36.67;;;12.30;85.40;;;;;;5024427;28;20097;-84
2022/05/05 04:17:49;;;;;;;54.20;37.03;;;12.30;85.20;;;;;;5012643;28;20096;-85
2022/05/05 04:20:15;;;;;;;52.65;37.35;;;12.20;85.30;;;;;;5023279;28;20052;-87
2022/05/05 04:22:41;;;;;;;53.97;36.35;;;12.20;85.40;;;;;;5051747;28;20042;-87
2022/05/05 04:25:08;;;;;;;54.28;38.58;;;12.20;85.50;;;;;;5012550;28;20046;-86
2022/05/05 04:27:35;;;;;;;54.17;35.13;;;12.20;85.60;;;;;;5011554;28;20609;-85
2022/05/05 04:30:02;;;;;;;57.70;38.40;;;12.20;85.70;;;;;;5016330;28;20050;-84
2022/05/05 04:32:28;;;;;;;53.58;36.50;;;12.20;85.70;;;;;;5010616;28;20030;-86
2022/05/05 04:34:54;;;;;;;51.90;35.33;;;12.20;85.70;;;;;;5019111;28;20345;-86
2022/05/05 04:37:20;;;;;;;49.88;33.95;;;12.20;85.70;;;;;;5007587;28;20033;-86
2022/05/05 04:39:46;;;;;;;49.33;34.00;;;12.30;85.70;;;;;;5020720;28;20069;-88
2022/05/05 04:42:12;;;;;;;54.13;36.65;;;12.30;85.60;;;;;;5012356;28;20149;-88
2022/05/05 04:44:37;;;;;;;50.55;36.58;;;12.30;85.50;;;;;;5019132;28;20131;-87
2022/05/05 04:47:03;;;;;;;44.97;33.30;;;12.30;85.40;;;;;;5016109;28;20224;-85
2022/05/05 04:49:31;;;;;;;52.40;35.03;;;12.30;85.50;;;;;;5016597;28;20029;-85
2022/05/05 04:51:57;;;;;;;52.58;36.20;;;12.40;85.50;;;;;;5020968;28;20396;-85
2022/05/05 04:54:23;;;;;;;50.88;34.53;;;12.40;85.40;;;;;;5013719;28;20470;-87
2022/05/05 04:56:49;;;;;;;53.15;36.47;;;12.50;85.40;;;;;;5020354;28;20104;-85
2022/05/05 04:59:14;;;;;;;52.60;35.95;;;12.50;85.40;;;;;;5020868;28;20071;-86
2022/05/05 05:01:40;;;;;;;50.10;34.80;;;12.50;85.40;;;;;;5018307;28;21371;-87
2022/05/05 05:04:06;;;;;;;46.60;32.40;;;12.50;85.40;;;;;;5018369;28;20870;-86
2022/05/05 05:06:32;;;;;;;47.55;33.15;;;12.60;85.10;;;;;;5014583;28;20033;-86
2022/05/05 05:08:58;;;;;;;48.92;33.28;;;12.60;85.00;;;;;;5006638;28;20304;-89
2022/05/05 05:11:25;;;;;;;51.03;33.17;;;12.70;85.00;;;;;;5009295;28;20801;-85
2022/05/05 05:13:50;;;;;;;51.95;36.83;;;12.70;85.00;;;;;;5009368;28;20091;-86
2022/05/05 05:16:16;;;;;;;52.88;36.83;;;12.70;85.00;;;;;;5007313;28;20045;-85
2022/05/05 05:18:42;;;;;;;52.65;34.58;;;12.80;85.00;;;;;;5011911;28;20038;-86
2022/05/05 05:21:08;;;;;;;50.17;33.83;;;12.90;84.90;;;;;;5015561;28;20038;-87
2022/05/05 05:23:33;;;;;;;51.45;35.28;;;13.00;84.90;;;;;;5009046;28;20049;-86
2022/05/05 05:25:59;;;;;;;47.17;33.50;;;13.00;84.80;;;;;;5005056;28;20037;-84
2022/05/05 05:28:25;;;;;;;52.97;36.55;;;13.10;84.60;;;;;;5019728;28;20653;-87
2022/05/05 05:30:51;;;;;;;57.08;37.08;;;13.10;84.30;;;;;;5023471;28;20508;-86
2022/05/05 05:33:17;;;;;;;56.05;36.63;;;13.10;84.50;;;;;;5013886;28;20417;-82
2022/05/05 05:35:44;;;;;;;51.60;36.00;;;13.10;84.70;;;;;;5019543;28;20041;-82
2022/05/05 05:38:11;;;;;;;56.97;35.40;;;13.10;84.40;;;;;;5016819;28;20038;-82
2022/05/05 05:40:36;;;;;;;58.22;37.22;;;13.10;84.30;;;;;;5016851;28;20851;-84
2022/05/05 05:43:03;;;;;;;54.92;35.15;;;13.20;84.30;;;;;;5015559;28;20629;-83
2022/05/05 05:45:28;;;;;;;50.10;34.92;;;13.20;84.50;;;;;;5034311;28;20094;-83
2022/05/05 05:47:54;;;;;;;49.92;34.97;;;13.20;84.20;;;;;;5032997;28;20049;-83
2022/05/05 05:50:20;;;;;;;51.00;35.35;;;13.30;84.20;;;;;;5015723;28;20145;-84
2022/05/05 05:52:46;;;;;;;54.10;35.05;;;13.40;84.10;;;;;;5010452;28;20433;-84
2022/05/05 05:55:12;;;;;;;48.80;33.80;;;13.40;83.90;;;;;;5018663;28;20191;-83
2022/05/05 05:57:38;;;;;;;52.90;36.45;;;13.40;84.00;;;;;;5005656;28;20057;-83
2022/05/05 06:00:05;;;;;;;51.75;34.15;;;13.50;83.90;;;;;;5013856;28;20140;-84
2022/05/05 06:05:15;;;;;;;53.13;35.50;;;13.50;83.70;;;;;;5011537;28;20199;-82
2022/05/05 06:07:41;;;;;;;58.28;38.97;;;13.60;83.80;;;;;;5013471;28;20144;-85
2022/05/05 06:10:07;;;;;;;51.03;35.80;;;13.60;83.50;;;;;;5013861;28;20117;-83
2022/05/05 06:12:36;;;;;;;59.25;39.63;;;13.70;83.70;;;;;;5018156;28;20045;-82
2022/05/05 06:15:02;;;;;;;60.95;39.25;;;13.70;83.10;;;;;;5011709;28;20378;-86
2022/05/05 06:17:28;;;;;;;60.13;38.58;;;13.70;83.40;;;;;;4992988;28;20776;-85
2022/05/05 06:19:53;;;;;;;65.63;40.40;;;13.70;83.20;;;;;;5014496;28;20045;-81
2022/05/05 06:22:19;;;;;;;65.10;40.72;;;13.80;83.10;;;;;;5005665;28;20042;-81
2022/05/05 06:24:45;;;;;;;65.45;42.60;;;13.90;83.30;;;;;;5007132;28;20057;-84
2022/05/05 06:27:10;;;;;;;76.20;44.38;;;14.00;82.70;;;;;;5004816;28;20120;-84
2022/05/05 06:29:36;;;;;;;76.57;44.88;;;14.10;82.80;;;;;;5009666;28;20500;-83
2022/05/05 06:32:02;;;;;;;67.47;44.20;;;14.20;82.70;;;;;;5011796;28;20096;-82
2022/05/05 06:34:28;;;;;;;75.68;45.42;;;14.40;82.30;;;;;;5020672;28;20606;-82
2022/05/05 06:36:54;;;;;;;74.78;45.17;;;14.60;81.90;;;;;;5013590;28;20033;-80
2022/05/05 06:39:20;;;;;;;76.85;47.10;;;14.60;81.00;;;;;;5013570;28;20384;-82
2022/05/05 06:41:45;;;;;;;72.18;44.35;;;14.60;80.90;;;;;;5016408;28;20072;-80
2022/05/05 06:44:11;;;;;;;80.78;47.92;;;14.70;81.40;;;;;;5021929;28;20103;-81
2022/05/05 06:46:37;;;;;;;79.75;48.78;;;14.60;81.00;;;;;;5018554;28;20060;-81
2022/05/05 06:49:02;;;;;;;86.40;48.72;;;14.60;81.20;;;;;;5007236;28;20040;-79
2022/05/05 06:51:28;;;;;;;86.55;48.90;;;14.60;81.40;;;;;;5006389;28;20034;-79
2022/05/05 06:53:54;;;;;;;78.78;47.03;;;14.60;82.20;;;;;;5022528;28;20435;-80
2022/05/05 06:56:20;;;;;;;78.18;45.47;;;14.70;81.90;;;;;;5005490;28;20188;-80
2022/05/05 06:58:45;;;;;;;80.75;47.35;;;14.70;81.50;;;;;;5010966;28;20596;-80
2022/05/05 07:06:40;;;;;;;77.85;46.05;;;14.50;82.30;;;;;;5009099;28;20048;-81
2022/05/05 07:11:50;;;;;;;84.88;46.28;;;14.60;82.30;;;;;;5045341;28;20059;-81
2022/05/05 07:14:16;;;;;;;90.68;46.40;;;14.60;82.30;;;;;;5030151;28;20073;-80
2022/05/05 07:16:41;;;;;;;80.25;44.78;;;14.60;82.30;;;;;;5023071;28;20033;-81
2022/05/05 07:19:09;;;;;;;88.97;46.95;;;14.70;82.10;;;;;;5015945;28;20052;-81
2022/05/05 07:21:35;;;;;;;89.78;48.17;;;14.80;81.80;;;;;;5019966;28;20033;-80
2022/05/05 07:24:00;;;;;;;92.28;51.08;;;14.90;81.60;;;;;;5018620;28;20042;-80
2022/05/05 07:26:26;;;;;;;89.30;50.45;;;14.90;81.00;;;;;;5020402;28;20124;-80
2022/05/05 07:28:52;;;;;;;95.72;52.08;;;14.90;80.80;;;;;;5009420;28;20121;-80
2022/05/05 07:31:18;;;;;;;87.13;49.17;;;14.90;80.80;;;;;;5018733;28;20455;-81
2022/05/05 07:33:43;;;;;;;92.47;52.25;;;14.80;80.90;;;;;;5021733;28;20115;-79
2022/05/05 07:36:09;;;;;;;88.68;50.90;;;14.70;81.20;;;;;;5007402;28;20506;-80
2022/05/05 07:38:35;;;;;;;93.82;50.65;;;14.90;81.50;;;;;;5019327;28;20539;-80
2022/05/05 07:41:01;;;;;;;85.32;48.67;;;14.90;81.00;;;;;;5009781;28;20128;-81
2022/05/05 07:43:26;;;;;;;80.72;47.97;;;14.80;81.20;;;;;;5015449;28;20368;-81
2022/05/05 07:45:52;;;;;;;87.32;49.08;;;14.80;81.10;;;;;;5020572;28;20500;-80
2022/05/05 07:48:19;;;;;;;82.72;48.50;;;14.70;81.30;;;;;;5020690;28;20033;-81
2022/05/05 07:50:47;;;;;;;84.82;49.63;;;14.70;81.60;;;;;;5026700;28;20033;-81
2022/05/05 07:53:13;;;;;;;77.18;46.83;;;14.70;81.80;;;;;;5016695;28;20125;-79
2022/05/05 07:55:39;;;;;;;81.82;48.28;;;14.70;81.40;;;;;;5018707;28;20037;-79
2022/05/05 07:58:05;;;;;;;84.80;48.97;;;14.60;81.60;;;;;;5015900;28;20297;-80
2022/05/05 08:00:30;;;;;;;87.00;50.05;;;14.70;82.00;;;;;;5018041;28;20472;-80
2022/05/05 08:02:56;;;;;;;85.82;49.00;;;14.60;82.00;;;;;;5020655;28;20087;-78
2022/05/05 08:05:22;;;;;;;86.38;51.22;;;14.70;82.00;;;;;;5019535;28;20075;-80
2022/05/05 08:07:49;;;;;;;92.35;52.38;;;14.60;81.60;;;;;;5021093;28;20365;-81
2022/05/05 08:10:20;;;;;;;85.22;49.92;;;14.60;81.60;;;;;;5022270;28;20070;-81
2022/05/05 08:12:46;;;;;;;92.70;51.33;;;14.60;81.50;;;;;;5019494;28;20470;-80
2022/05/05 08:15:18;;;;;;;89.68;49.40;;;14.60;81.50;;;;;;5016201;28;20111;-80
2022/05/05 08:17:45;;;;;;;85.25;48.42;;;14.70;81.60;;;;;;5019217;28;20029;-83
2022/05/05 08:20:11;;;;;;;78.13;46.60;;;14.80;81.30;;;;;;5021705;28;20029;-82
2022/05/05 08:22:37;;;;;;;70.28;43.25;;;14.90;80.90;;;;;;5018447;28;20038;-82
2022/05/05 08:30:33;;;;;;;71.22;44.65;;;15.10;80.20;;;;;;5014739;28;20037;-81
2022/05/05 08:32:58;;;;;;;70.47;42.33;;;15.30;79.80;;;;;;5009335;28;20045;-82
2022/05/05 08:35:27;;;;;;;71.15;43.00;;;15.30;79.80;;;;;;5005344;28;20676;-80
2022/05/05 08:37:53;;;;;;;64.32;41.20;;;15.40;79.50;;;;;;5014209;28;20034;-81
2022/05/05 08:40:23;;;;;;;68.43;43.22;;;15.30;79.00;;;;;;5010987;28;20653;-82
2022/05/05 08:42:49;;;;;;;60.55;38.95;;;15.40;79.30;;;;;;5013658;28;20041;-82
2022/05/05 08:45:15;;;;;;;56.85;36.88;;;15.60;78.60;;;;;;5014321;28;20447;-79
2022/05/05 08:47:53;;;;;;;50.53;34.58;;;15.60;78.40;;;;;;4998203;28;20026;-80
2022/05/05 08:50:20;;;;;;;51.15;33.40;;;15.70;77.60;;;;;;5005981;28;20041;-82
2022/05/05 08:52:50;;;;;;;51.60;35.25;;;15.90;77.00;;;;;;5004264;28;20682;-81
2022/05/05 08:55:18;;;;;;;50.08;32.58;;;16.00;76.60;;;;;;5011989;28;20037;-83
2022/05/05 08:57:44;;;;;;;45.92;31.90;;;16.20;76.30;;;;;;5037599;28;20321;-79
2022/05/05 09:00:13;;;;;;;44.53;30.13;;;16.50;75.90;;;;;;5009650;28;20034;-80
2022/05/05 09:02:39;;;;;;;42.20;29.60;;;16.60;73.00;;;;;;5014230;28;20128;-82
2022/05/05 09:05:05;;;;;;;42.13;29.63;;;16.80;73.60;;;;;;5008086;28;20425;-82
2022/05/05 09:07:51;;;;;;;45.42;31.42;;;16.90;72.70;;;;;;5006997;28;20034;-80
2022/05/05 09:10:19;;;;;;;46.17;33.30;;;17.00;73.40;;;;;;5010573;28;20025;-79
2022/05/05 09:12:59;;;;;;;48.38;34.35;;;17.20;71.90;;;;;;5013280;28;20061;-79
2022/05/05 09:15:42;;;;;;;48.55;33.78;;;17.40;71.40;;;;;;5012929;28;20596;-80
2022/05/05 09:18:16;;;;;;;46.53;32.58;;;17.50;70.20;;;;;;4999238;28;20033;-82
2022/05/05 09:20:43;;;;;;;50.57;34.27;;;17.40;70.20;;;;;;5010467;28;20064;-81
2022/05/05 09:23:12;;;;;;;45.90;31.67;;;17.50;70.10;;;;;;5007906;28;20388;-84
2022/05/05 09:25:45;;;;;;;47.47;32.38;;;17.60;69.60;;;;;;5012104;28;20072;-83
2022/05/05 09:28:30;;;;;;;45.63;31.58;;;17.90;69.60;;;;;;5004809;28;20033;-82
2022/05/05 09:31:04;;;;;;;45.00;31.95;;;18.30;68.90;;;;;;5010715;28;20053;-83
2022/05/05 09:33:40;;;;;;;44.70;32.13;;;18.40;67.60;;;;;;4995188;28;20033;-83
2022/05/05 09:36:29;;;;;;;42.65;30.77;;;18.90;67.80;;;;;;5010144;28;20357;-82
2022/05/05 09:38:58;;;;;;;41.65;30.33;;;19.80;64.60;;;;;;5033261;28;20107;-80
2022/05/05 09:41:28;;;;;;;39.15;29.73;;;19.60;62.00;;;;;;5006546;28;20034;-82
2022/05/05 09:43:57;;;;;;;44.63;31.63;;;19.80;62.40;;;;;;5002836;28;20437;-79
2022/05/05 09:46:25;;;;;;;43.50;31.88;;;19.90;59.90;;;;;;4998524;28;20034;-84
2022/05/05 09:48:52;;;;;;;44.40;29.98;;;19.60;62.00;;;;;;4998886;28;20381;-82
2022/05/05 09:51:18;;;;;;;39.85;30.15;;;19.60;63.00;;;;;;5002272;28;20034;-82
2022/05/05 09:59:30;;;;;;;36.90;28.67;;;19.00;63.00;;;;;;5011662;28;20044;-84
2022/05/05 10:02:05;;;;;;;45.63;28.38;;;18.50;64.70;;;;;;5035503;28;20124;-81
2022/05/05 10:04:35;;;;;;;37.00;28.17;;;17.90;66.40;;;;;;5019968;28;20406;-82
2022/05/05 10:07:03;;;;;;;35.13;26.13;;;17.70;68.20;;;;;;5014329;28;20544;-80
2022/05/05 10:09:29;;;;;;;38.38;27.33;;;17.60;67.10;;;;;;5015850;28;20049;-79
2022/05/05 10:11:55;;;;;;;39.30;29.63;;;17.50;67.80;;;;;;5022167;28;20034;-80
2022/05/05 10:14:21;;;;;;;33.78;25.42;;;17.60;68.30;;;;;;5019200;28;20106;-85
2022/05/05 10:16:48;;;;;;;36.03;26.70;;;17.70;67.20;;;;;;5017043;28;20029;-82
2022/05/05 10:19:15;;;;;;;37.63;27.17;;;17.60;67.30;;;;;;5016731;28;20038;-82
2022/05/05 10:22:11;;;;;;;35.15;26.75;;;17.70;67.00;;;;;;5011210;28;20069;-79
2022/05/05 10:24:46;;;;;;;36.30;27.73;;;17.60;67.30;;;;;;5012418;28;20059;-79
2022/05/05 10:27:12;;;;;;;36.80;26.05;;;18.30;66.70;;;;;;5008584;28;20041;-82
2022/05/05 10:29:43;;;;;;;35.40;26.10;;;19.00;65.80;;;;;;5007850;28;20037;-80
2022/05/05 10:32:15;;;;;;;31.55;24.77;;;19.20;63.30;;;;;;5025141;28;20045;-83
2022/05/05 10:34:47;;;;;;;32.75;26.02;;;19.30;63.50;;;;;;5010115;28;20048;-84
2022/05/05 10:37:15;;;;;;;35.45;27.20;;;19.60;62.20;;;;;;5018141;28;20047;-85
2022/05/05 10:40:01;;;;;;;33.17;24.38;;;19.90;62.00;;;;;;5015152;28;20041;-82
2022/05/05 10:42:30;;;;;;;28.58;21.35;;;19.50;61.70;;;;;;5017989;28;20059;-82
2022/05/05 10:45:07;;;;;;;27.83;20.88;;;19.30;60.90;;;;;;5020438;28;20041;-82
2022/05/05 10:48:06;;;;;;;28.38;22.50;;;18.80;62.90;;;;;;5014869;28;20033;-82
2022/05/05 10:50:53;;;;;;;31.83;23.75;;;18.70;63.80;;;;;;5013386;28;20075;-82
2022/05/05 10:53:42;;;;;;;30.73;24.02;;;18.50;63.80;;;;;;5015925;28;20488;-81
2022/05/05 10:56:31;;;;;;;31.30;23.73;;;18.10;66.60;;;;;;5044040;28;20080;-80
2022/05/05 10:59:03;;;;;;;32.90;24.10;;;17.90;67.00;;;;;;5017961;28;20391;-79
2022/05/05 11:01:31;;;;;;;30.70;23.77;;;17.80;67.40;;;;;;5009572;28;20540;-82
2022/05/05 11:04:07;;;;;;;32.05;24.25;;;17.60;67.50;;;;;;5017335;28;20205;-80
2022/05/05 11:06:33;;;;;;;30.00;23.92;;;17.50;68.10;;;;;;5027885;28;20402;-82
2022/05/05 11:08:59;;;;;;;27.73;22.20;;;17.60;69.10;;;;;;5024079;28;20041;-81
2022/05/05 11:11:44;;;;;;;29.77;23.23;;;17.40;68.50;;;;;;5012100;28;20060;-81
2022/05/05 11:22:57;;;;;;;24.60;21.27;;;17.50;68.60;;;;;;5014862;28;20071;-81
2022/05/05 11:25:24;;;;;;;25.55;21.85;;;17.50;69.30;;;;;;5019105;28;20080;-81
2022/05/05 11:27:56;;;;;;;29.83;21.48;;;17.60;69.10;;;;;;5028204;28;20503;-80
2022/05/05 11:30:22;;;;;;;25.13;21.50;;;17.60;68.90;;;;;;5017484;28;20494;-80
2022/05/05 11:32:48;;;;;;;25.75;21.50;;;17.40;69.50;;;;;;5017591;28;20044;-82
2022/05/05 11:35:20;;;;;;;23.42;20.90;;;17.30;68.80;;;;;;5016468;28;20041;-82
2022/05/05 11:37:46;;;;;;;23.92;19.95;;;17.20;69.20;;;;;;5014324;28;20083;-79
2022/05/05 11:40:12;;;;;;;22.73;19.70;;;17.40;68.80;;;;;;5014835;28;20037;-81
2022/05/05 11:45:34;;;;;;;20.83;18.63;;;17.70;68.90;;;;;;5012059;28;20146;-81
2022/05/05 11:48:17;;;;;;;20.70;18.08;;;18.10;67.00;;;;;;5008791;28;20030;-80
2022/05/05 11:50:43;;;;;;;19.98;17.58;;;18.10;66.40;;;;;;5014233;28;20033;-80
2022/05/05 11:53:17;;;;;;;19.88;17.77;;;18.30;66.00;;;;;;5012782;28;20049;-82
2022/05/05 11:55:46;;;;;;;19.67;17.38;;;18.30;65.00;;;;;;5014735;28;20050;-80
2022/05/05 12:04:01;;;;;;;17.58;15.25;;;18.10;64.50;;;;;;5015677;28;20202;-82
2022/05/05 12:06:28;;;;;;;17.50;14.07;;;18.10;64.50;;;;;;5018639;28;20040;-83
2022/05/05 12:08:57;;;;;;;16.05;13.90;;;18.00;63.30;;;;;;5018782;28;20446;-80
2022/05/05 12:11:29;;;;;;;17.10;13.52;;;17.90;62.90;;;;;;5026113;28;20407;-82
2022/05/05 12:14:05;;;;;;;15.98;14.10;;;18.00;63.80;;;;;;5014007;28;20080;-81
2022/05/05 12:16:35;;;;;;;18.63;15.50;;;18.10;63.80;;;;;;5022171;28;20041;-79
2022/05/05 12:19:11;;;;;;;18.15;15.85;;;18.20;63.40;;;;;;5017805;28;20044;-79
2022/05/05 12:21:38;;;;;;;19.15;15.60;;;18.40;62.90;;;;;;5024804;28;20033;-79
2022/05/05 12:24:04;;;;;;;19.00;15.98;;;18.40;62.50;;;;;;5017967;28;20510;-79
2022/05/05 12:26:35;;;;;;;15.60;13.32;;;18.20;63.70;;;;;;5018087;28;20042;-81
2022/05/05 12:29:02;;;;;;;17.00;14.25;;;18.20;63.60;;;;;;5018485;28;20037;-80
2022/05/05 12:31:31;;;;;;;16.90;13.10;;;17.90;63.00;;;;;;5018526;28;20033;-80
2022/05/05 12:33:57;;;;;;;16.60;14.18;;;17.80;63.50;;;;;;5013392;28;20044;-79
2022/05/05 12:36:30;;;;;;;19.23;14.10;;;17.90;63.70;;;;;;5019863;28;20036;-79
2022/05/05 12:39:10;;;;;;;15.88;13.48;;;17.90;64.00;;;;;;5021880;28;20394;-79
2022/05/05 12:41:36;;;;;;;17.73;15.45;;;18.10;64.00;;;;;;5026579;28;20053;-82
2022/05/05 12:44:08;;;;;;;16.42;14.02;;;17.90;63.70;;;;;;5017669;28;20064;-82
2022/05/05 12:46:35;;;;;;;19.45;15.38;;;17.90;63.90;;;;;;5020223;28;20120;-80
2022/05/05 12:49:00;;;;;;;19.90;15.98;;;17.80;64.90;;;;;;5039160;28;20103;-83
2022/05/05 12:51:35;;;;;;;19.83;16.45;;;17.70;65.60;;;;;;5029358;28;20045;-84
2022/05/05 12:59:40;;;;;;;19.75;16.42;;;17.50;66.50;;;;;;5023511;28;20149;-81
2022/05/05 13:02:06;;;;;;;18.90;15.90;;;17.70;66.40;;;;;;5021310;28;20091;-81
2022/05/05 13:04:32;;;;;;;21.20;15.50;;;17.90;66.70;;;;;;5011932;28;20045;-81
2022/05/05 13:06:58;;;;;;;16.52;14.48;;;18.00;65.40;;;;;;5022859;28;20057;-81
2022/05/05 13:09:24;;;;;;;17.67;14.93;;;18.00;63.90;;;;;;5015087;28;20483;-80
2022/05/05 13:11:52;;;;;;;19.52;15.65;;;18.10;64.60;;;;;;5025930;28;20037;-81
2022/05/05 13:14:18;;;;;;;18.90;15.70;;;18.40;63.30;;;;;;5017748;28;20829;-79
2022/05/05 13:16:44;;;;;;;18.13;14.35;;;18.60;63.40;;;;;;5021970;28;20037;-79
2022/05/05 13:19:10;;;;;;;19.65;14.70;;;18.70;63.10;;;;;;5020875;28;20191;-82
2022/05/05 13:21:38;;;;;;;18.50;15.30;;;18.80;62.60;;;;;;5017792;28;20041;-80
2022/05/05 13:24:05;;;;;;;17.70;15.38;;;18.60;62.30;;;;;;5017662;28;20098;-81
2022/05/05 13:26:31;;;;;;;19.08;15.15;;;18.70;62.00;;;;;;5014705;28;20061;-83
2022/05/05 13:28:57;;;;;;;18.33;15.18;;;18.60;62.00;;;;;;5011581;28;20049;-83